createdAt,value
2022-12-31T00:01:24.376Z,100110.53
2022-12-31T00:03:51.341Z,100114.34
2022-12-31T00:06:21.285Z,100119.47
2022-12-31T00:08:49.196Z,100126.44
2022-12-31T00:11:16.606Z,100123.47
2022-12-31T00:13:43.865Z,100118.88
2022-12-31T00:16:14.181Z,100106.19
2022-12-31T00:18:44.637Z,100119.94
2022-12-31T00:21:12.121Z,100117.50
2022-12-31T00:23:39.775Z,100115.06
2022-12-31T00:26:10.885Z,100116.38
2022-12-31T00:28:39.011Z,100123.13
2022-12-31T00:31:15.141Z,100125.59
2022-12-31T00:33:42.416Z,100127.69
2022-12-31T00:36:13.184Z,100131.00
2022-12-31T00:38:41.556Z,100123.66
2022-12-31T00:41:09.883Z,100131.47
2022-12-31T00:43:37.139Z,100124.63
2022-12-31T00:46:05.432Z,100126.31
2022-12-31T00:48:33.213Z,100120.97
2022-12-31T00:51:01.607Z,100132.81
2022-12-31T00:53:29.111Z,100137.69
2022-12-31T00:56:02.857Z,100137.66
2022-12-31T00:58:30.053Z,100128.50
2022-12-31T01:00:57.258Z,100142.47
2022-12-31T01:03:24.996Z,100140.63
2022-12-31T01:05:51.711Z,100142.84
2022-12-31T01:08:18.696Z,100148.22
2022-12-31T01:11:08.132Z,100155.25
2022-12-31T01:13:34.837Z,100166.06
2022-12-31T01:16:12.714Z,100164.72
2022-12-31T01:18:40.111Z,100170.09
2022-12-31T01:21:09.669Z,100165.25
2022-12-31T01:23:36.823Z,100172.00
2022-12-31T01:26:06.387Z,100176.91
2022-12-31T01:28:33.839Z,100171.53
2022-12-31T01:31:07.939Z,100191.00
2022-12-31T01:33:35.354Z,100191.81
2022-12-31T01:36:08.262Z,100191.50
2022-12-31T01:38:35.664Z,100200.19
2022-12-31T01:41:03.298Z,100203.44
2022-12-31T01:43:50.792Z,100209.91
2022-12-31T01:46:39.113Z,100214.78
2022-12-31T01:49:29.452Z,100216.13
2022-12-31T01:52:10.760Z,100216.94
2022-12-31T01:54:42.323Z,100215.31
2022-12-31T01:57:11.181Z,100204.31
2022-12-31T01:59:37.958Z,100213.75
2022-12-31T02:02:05.452Z,100204.09
2022-12-31T02:04:32.191Z,100208.94
2022-12-31T02:07:07.203Z,100215.75
2022-12-31T02:09:38.176Z,100218.50
2022-12-31T02:12:06.587Z,100209.34
2022-12-31T02:14:37.495Z,100215.59
2022-12-31T02:17:04.073Z,100213.44
2022-12-31T02:19:39.818Z,100207.78
2022-12-31T02:22:21.158Z,100208.09
2022-12-31T02:25:25.199Z,100201.06
2022-12-31T02:28:28.727Z,100183.25
2022-12-31T02:31:11.015Z,100194.59
2022-12-31T02:33:46.603Z,100197.28
2022-12-31T02:36:20.159Z,100206.75
2022-12-31T02:38:48.640Z,100215.38
2022-12-31T02:41:47.283Z,100219.19
2022-12-31T02:44:33.619Z,100222.19
2022-12-31T02:47:09.552Z,100213.81
2022-12-31T02:50:03.425Z,100218.94
2022-12-31T02:52:48.969Z,100219.47
2022-12-31T02:55:24.429Z,100227.06
2022-12-31T02:58:20.369Z,100222.72
2022-12-31T03:01:13.777Z,100236.50
2022-12-31T03:03:41.259Z,100234.59
2022-12-31T03:06:09.421Z,100225.41
2022-12-31T03:08:56.072Z,100238.69
2022-12-31T03:11:41.393Z,100246.78
2022-12-31T03:14:07.993Z,100228.69
2022-12-31T03:16:34.996Z,100220.59
2022-12-31T03:19:20.390Z,100214.38
2022-12-31T03:22:05.745Z,100229.78
2022-12-31T03:24:51.017Z,100223.56
2022-12-31T03:27:17.590Z,100224.91
2022-12-31T03:29:44.150Z,100224.63
2022-12-31T03:32:10.828Z,100230.84
2022-12-31T03:34:37.407Z,100230.84
2022-12-31T03:37:04.043Z,100224.91
2022-12-31T03:39:30.730Z,100226.00
2022-12-31T03:41:57.320Z,100233.00
2022-12-31T03:44:23.932Z,100224.91
2022-12-31T03:46:50.551Z,100236.28
2022-12-31T03:49:17.255Z,100238.41
2022-12-31T03:51:43.874Z,100235.22
2022-12-31T03:54:10.531Z,100243.31
2022-12-31T03:56:37.148Z,100243.03
2022-12-31T03:59:03.928Z,100249.53
2022-12-31T04:01:30.687Z,100244.13
2022-12-31T04:03:57.335Z,100231.97
2022-12-31T04:06:24.001Z,100235.75
2022-12-31T04:08:50.672Z,100231.69
2022-12-31T04:11:20.854Z,100235.22
2022-12-31T04:13:47.966Z,100241.16
2022-12-31T04:16:14.625Z,100236.03
2022-12-31T04:18:41.273Z,100240.63
2022-12-31T04:21:07.874Z,100247.94
2022-12-31T04:23:34.455Z,100253.34
2022-12-31T04:26:01.428Z,100255.78
2022-12-31T04:28:29.064Z,100249.03
2022-12-31T04:30:55.656Z,100254.75
2022-12-31T04:33:22.281Z,100248.25
2022-12-31T04:35:49.718Z,100250.13
2022-12-31T04:38:16.593Z,100240.69
2022-12-31T04:41:04.169Z,100257.72
2022-12-31T04:43:31.676Z,100256.09
2022-12-31T04:45:59.593Z,100242.84
2022-12-31T04:48:26.474Z,100262.31
2022-12-31T04:50:53.202Z,100254.75
2022-12-31T04:53:19.919Z,100250.41
2022-12-31T04:55:46.528Z,100255.56
2022-12-31T04:58:13.296Z,100253.66
2022-12-31T05:00:41.311Z,100255.56
2022-12-31T05:03:08.068Z,100257.97
2022-12-31T05:05:38.974Z,100258.78
2022-12-31T05:08:05.611Z,100265.00
2022-12-31T05:10:35.905Z,100269.34
2022-12-31T05:13:02.720Z,100273.09
2022-12-31T05:15:29.718Z,100293.69
2022-12-31T05:17:56.383Z,100289.88
2022-12-31T05:20:23.047Z,100290.97
2022-12-31T05:22:50.128Z,100284.19
2022-12-31T05:25:16.865Z,100274.97
2022-12-31T05:27:43.651Z,100288.75
2022-12-31T05:30:11.899Z,100283.34
2022-12-31T05:32:41.931Z,100296.63
2022-12-31T05:35:09.998Z,100296.88
2022-12-31T05:37:37.132Z,100283.34
2022-12-31T05:40:04.402Z,100295.00
2022-12-31T05:42:31.056Z,100305.03
2022-12-31T05:44:57.865Z,100300.16
2022-12-31T05:47:25.708Z,100305.28
2022-12-31T05:49:52.458Z,100311.25
2022-12-31T05:52:19.430Z,100310.97
2022-12-31T05:54:46.036Z,100313.38
2022-12-31T05:57:12.689Z,100322.59
2022-12-31T05:59:39.310Z,100325.03
2022-12-31T06:02:06.012Z,100312.31
2022-12-31T06:04:33.834Z,100318.78
2022-12-31T06:07:00.531Z,100302.81
2022-12-31T06:09:27.210Z,100317.97
2022-12-31T06:11:53.806Z,100311.50
2022-12-31T06:14:20.525Z,100309.88
2022-12-31T06:16:47.172Z,100314.22
2022-12-31T06:19:13.868Z,100316.94
2022-12-31T06:21:40.527Z,100332.06
2022-12-31T06:24:07.548Z,100318.81
2022-12-31T06:26:35.122Z,100314.75
2022-12-31T06:29:03.654Z,100330.47
2022-12-31T06:31:37.476Z,100339.13
2022-12-31T06:34:04.464Z,100342.91
2022-12-31T06:36:31.155Z,100338.59
2022-12-31T06:38:59.342Z,100340.72
2022-12-31T06:41:25.950Z,100349.41
2022-12-31T06:43:52.687Z,100338.31
2022-12-31T06:46:19.637Z,100339.41
2022-12-31T06:48:46.332Z,100338.59
2022-12-31T06:51:17.725Z,100350.22
2022-12-31T06:53:45.827Z,100343.44
2022-12-31T06:56:34.691Z,100336.41
2022-12-31T06:59:02.170Z,100341.00
2022-12-31T07:01:49.206Z,100358.34
2022-12-31T07:04:40.884Z,100354.53
2022-12-31T07:07:13.287Z,100354.25
2022-12-31T07:09:57.363Z,100366.72
2022-12-31T07:12:34.257Z,100364.84
2022-12-31T07:15:11.470Z,100368.34
2022-12-31T07:17:58.496Z,100365.09
2022-12-31T07:20:25.482Z,100379.97
2022-12-31T07:22:52.372Z,100372.09
2022-12-31T07:25:19.332Z,100391.34
2022-12-31T07:28:04.118Z,100386.19
2022-12-31T07:30:46.701Z,100379.97
2022-12-31T07:33:45.379Z,100378.06
2022-12-31T07:36:27.923Z,100387.81
2022-12-31T07:39:08.647Z,100385.63
2022-12-31T07:41:51.967Z,100391.22
2022-12-31T07:44:49.440Z,100388.28
2022-12-31T07:47:25.407Z,100394.53
2022-12-31T07:49:53.068Z,100392.63
2022-12-31T07:52:20.530Z,100403.44
2022-12-31T07:54:48.649Z,100396.09
2022-12-31T07:57:17.904Z,100399.03
2022-12-31T08:00:07.646Z,100399.91
2022-12-31T08:02:50.226Z,100398.88
2022-12-31T08:05:50.922Z,100399.66
2022-12-31T08:08:47.727Z,100408.84
2022-12-31T08:11:46.722Z,100422.34
2022-12-31T08:14:14.819Z,100415.88
2022-12-31T08:16:41.964Z,100425.09
2022-12-31T08:19:22.466Z,100430.25
2022-12-31T08:21:54.725Z,100425.34
2022-12-31T08:24:43.019Z,100422.09
2022-12-31T08:27:29.906Z,100423.69
2022-12-31T08:30:09.801Z,100424.78
2022-12-31T08:32:58.966Z,100439.66
2022-12-31T08:35:47.482Z,100432.38
2022-12-31T08:38:31.887Z,100448.31
2022-12-31T08:41:05.746Z,100445.88
2022-12-31T08:43:50.057Z,100444.56
2022-12-31T08:46:25.966Z,100441.03
2022-12-31T08:48:52.780Z,100449.22
2022-12-31T08:51:22.510Z,100436.75
2022-12-31T08:53:49.758Z,100445.69
2022-12-31T08:56:31.855Z,100458.66
2022-12-31T08:59:44.619Z,100442.72
2022-12-31T09:02:51.995Z,100457.06
2022-12-31T09:05:53.531Z,100449.50
2022-12-31T09:08:37.067Z,100442.44
2022-12-31T09:11:59.524Z,100445.97
2022-12-31T09:14:47.083Z,100454.91
2022-12-31T09:17:58.051Z,100458.16
2022-12-31T09:20:42.828Z,100464.13
2022-12-31T09:23:12.598Z,100467.34
2022-12-31T09:25:57.278Z,100460.84
2022-12-31T09:28:39.245Z,100473.03
2022-12-31T09:31:21.613Z,100481.69
2022-12-31T09:34:06.508Z,100485.22
2022-12-31T09:36:48.317Z,100491.19
2022-12-31T09:39:47.071Z,100482.03
2022-12-31T09:42:57.570Z,100489.06
2022-12-31T09:45:46.524Z,100474.41
2022-12-31T09:48:48.787Z,100470.38
2022-12-31T09:51:36.598Z,100474.16
2022-12-31T09:54:36.590Z,100476.59
2022-12-31T09:57:38.024Z,100464.16
2022-12-31T10:00:20.936Z,100473.59
2022-12-31T10:03:23.537Z,100471.72
2022-12-31T10:06:29.210Z,100469.56
2022-12-31T10:09:32.336Z,100466.56
2022-12-31T10:12:34.609Z,100461.72
2022-12-31T10:15:38.152Z,100467.41
2022-12-31T10:18:35.335Z,100463.09
2022-12-31T10:21:16.897Z,100471.19
2022-12-31T10:24:15.473Z,100482.59
2022-12-31T10:27:06.708Z,100480.16
2022-12-31T10:29:47.149Z,100474.97
2022-12-31T10:32:18.827Z,100472.56
2022-12-31T10:35:13.829Z,100472.00
2022-12-31T10:37:51.657Z,100479.03
2022-12-31T10:40:24.473Z,100466.56
2022-12-31T10:43:16.504Z,100468.44
2022-12-31T10:45:52.078Z,100468.06
2022-12-31T10:48:37.756Z,100458.63
2022-12-31T10:51:22.884Z,100463.19
2022-12-31T10:54:41.150Z,100462.63
2022-12-31T10:57:17.243Z,100460.41
2022-12-31T11:00:09.288Z,100460.66
2022-12-31T11:02:51.860Z,100457.94
2022-12-31T11:05:28.136Z,100463.09
2022-12-31T11:08:25.614Z,100469.28
2022-12-31T11:11:18.117Z,100475.28
2022-12-31T11:14:03.589Z,100476.38
2022-12-31T11:16:45.240Z,100482.25
2022-12-31T11:19:16.761Z,100488.72
2022-12-31T11:22:18.211Z,100483.81
2022-12-31T11:24:57.149Z,100484.28
2022-12-31T11:28:01.727Z,100470.50
2022-12-31T11:30:34.913Z,100469.75
2022-12-31T11:33:50.572Z,100465.44
2022-12-31T11:36:41.581Z,100462.97
2022-12-31T11:39:24.584Z,100454.50
2022-12-31T11:42:09.610Z,100451.28
2022-12-31T11:44:40.893Z,100456.44
2022-12-31T11:47:25.674Z,100451.59
2022-12-31T11:50:29.889Z,100441.50
2022-12-31T11:53:12.295Z,100428.97
2022-12-31T11:55:50.744Z,100424.63
2022-12-31T11:58:28.543Z,100416.00
2022-12-31T12:01:11.674Z,100406.81
2022-12-31T12:03:43.232Z,100410.59
2022-12-31T12:06:15.469Z,100424.34
2022-12-31T12:08:44.058Z,100418.91
2022-12-31T12:11:32.932Z,100425.84
2022-12-31T12:13:59.593Z,100429.94
2022-12-31T12:16:27.974Z,100429.31
2022-12-31T12:19:16.296Z,100435.28
2022-12-31T12:21:48.456Z,100436.97
2022-12-31T12:24:33.273Z,100429.13
2022-12-31T12:26:59.892Z,100422.22
2022-12-31T12:29:29.992Z,100417.34
2022-12-31T12:32:18.129Z,100422.22
2022-12-31T12:34:52.228Z,100425.78
2022-12-31T12:37:25.129Z,100428.47
2022-12-31T12:40:00.858Z,100425.28
2022-12-31T12:42:29.118Z,100427.31
2022-12-31T12:45:18.062Z,100421.00
2022-12-31T12:47:49.020Z,100416.16
2022-12-31T12:50:18.901Z,100422.53
2022-12-31T12:53:12.490Z,100408.53
2022-12-31T12:55:56.594Z,100399.72
2022-12-31T12:58:58.400Z,100399.50
2022-12-31T13:01:44.200Z,100393.50
2022-12-31T13:04:34.317Z,100396.50
2022-12-31T13:07:17.724Z,100393.47
2022-12-31T13:09:50.476Z,100398.38
2022-12-31T13:13:13.617Z,100398.97
2022-12-31T13:15:52.591Z,100401.34
2022-12-31T13:18:37.126Z,100388.53
2022-12-31T13:21:30.660Z,100385.53
2022-12-31T13:24:22.254Z,100374.03
2022-12-31T13:27:02.213Z,100375.78
2022-12-31T13:29:33.058Z,100378.53
2022-12-31T13:32:04.689Z,100389.66
2022-12-31T13:34:36.401Z,100389.28
2022-12-31T13:37:13.783Z,100385.06
2022-12-31T13:39:43.579Z,100393.69
2022-12-31T13:42:20.801Z,100394.66
2022-12-31T13:45:01.149Z,100398.84
2022-12-31T13:47:37.038Z,100400.13
2022-12-31T13:50:33.713Z,100390.88
2022-12-31T13:53:13.509Z,100397.72
2022-12-31T13:55:45.947Z,100392.53
2022-12-31T13:58:31.671Z,100392.03
2022-12-31T14:01:18.225Z,100375.94
2022-12-31T14:03:58.624Z,100383.00
2022-12-31T14:06:54.718Z,100384.50
2022-12-31T14:09:33.513Z,100372.03
2022-12-31T14:12:02.283Z,100379.34
2022-12-31T14:14:51.428Z,100366.81
2022-12-31T14:17:30.639Z,100370.06
2022-12-31T14:20:09.102Z,100375.25
2022-12-31T14:22:53.713Z,100374.16
2022-12-31T14:25:27.355Z,100375.31
2022-12-31T14:27:56.277Z,100382.41
2022-12-31T14:30:30.834Z,100394.31
2022-12-31T14:33:10.700Z,100383.00
2022-12-31T14:35:45.474Z,100385.31
2022-12-31T14:38:23.531Z,100393.31
2022-12-31T14:41:04.385Z,100395.78
2022-12-31T14:43:48.939Z,100396.22
2022-12-31T14:46:36.208Z,100403.88
2022-12-31T14:49:11.857Z,100400.44
2022-12-31T14:51:38.558Z,100401.28
2022-12-31T14:54:05.459Z,100403.69
2022-12-31T14:56:40.876Z,100399.91
2022-12-31T14:59:40.826Z,100404.59
2022-12-31T15:02:30.982Z,100400.44
2022-12-31T15:05:16.412Z,100398.91
2022-12-31T15:07:49.166Z,100407.56
2022-12-31T15:10:35.361Z,100399.50
2022-12-31T15:13:07.506Z,100405.50
2022-12-31T15:16:05.426Z,100400.63
2022-12-31T15:18:55.666Z,100396.59
2022-12-31T15:21:46.439Z,100415.28
2022-12-31T15:24:19.053Z,100404.72
2022-12-31T15:26:52.957Z,100408.78
2022-12-31T15:29:32.315Z,100407.72
2022-12-31T15:32:02.860Z,100402.53
2022-12-31T15:34:33.778Z,100421.28
2022-12-31T15:37:04.366Z,100426.00
2022-12-31T15:39:30.928Z,100425.28
2022-12-31T15:44:51.768Z,100421.84
2022-12-31T15:47:35.207Z,100430.50
2022-12-31T15:50:06.406Z,100434.56
2022-12-31T15:52:43.990Z,100436.25
2022-12-31T15:55:33.336Z,100441.91
2022-12-31T15:58:22.641Z,100433.81
2022-12-31T16:01:03.370Z,100431.63
2022-12-31T16:03:31.665Z,100427.28
2022-12-31T16:06:11.955Z,100435.38
2022-12-31T16:08:43.607Z,100444.28
2022-12-31T16:11:10.697Z,100442.44
2022-12-31T16:13:42.692Z,100439.22
2022-12-31T16:16:19.867Z,100448.91
2022-12-31T16:18:46.576Z,100442.19
2022-12-31T16:21:32.849Z,100443.03
2022-12-31T16:24:05.963Z,100446.00
2022-12-31T16:26:48.242Z,100454.41
2022-12-31T16:29:17.510Z,100450.06
2022-12-31T16:31:46.279Z,100462.25
2022-12-31T16:34:16.689Z,100458.72
2022-12-31T16:36:54.066Z,100460.66
2022-12-31T16:39:55.847Z,100451.44
2022-12-31T16:42:24.174Z,100456.84
2022-12-31T16:44:52.478Z,100458.50
2022-12-31T16:47:23.711Z,100458.50
2022-12-31T16:50:04.016Z,100460.09
2022-12-31T16:52:38.371Z,100458.19
2022-12-31T16:55:26.115Z,100457.13
2022-12-31T16:57:57.792Z,100458.47
2022-12-31T17:00:25.349Z,100459.28
2022-12-31T17:03:08.864Z,100457.13
2022-12-31T17:05:58.837Z,100450.63
2022-12-31T17:08:28.887Z,100449.00
2022-12-31T17:10:56.475Z,100451.44
2022-12-31T17:13:30.444Z,100441.44
2022-12-31T17:15:58.526Z,100440.31
2022-12-31T17:18:33.501Z,100437.63
2022-12-31T17:21:08.033Z,100439.00
2022-12-31T17:23:36.416Z,100430.88
2022-12-31T17:26:07.911Z,100427.91
2022-12-31T17:28:43.436Z,100437.13
2022-12-31T17:31:30.593Z,100437.59
2022-12-31T17:34:12.460Z,100441.44
2022-12-31T17:36:56.040Z,100450.63
2022-12-31T17:39:23.813Z,100442.22
2022-12-31T17:41:55.201Z,100445.75
2022-12-31T17:44:25.687Z,100451.72
2022-12-31T17:46:53.175Z,100454.44
2022-12-31T17:49:27.113Z,100455.50
2022-12-31T17:51:53.819Z,100454.94
2022-12-31T17:54:20.556Z,100460.94
2022-12-31T17:56:47.349Z,100460.94
2022-12-31T17:59:33.382Z,100464.16
2022-12-31T18:02:03.063Z,100467.97
2022-12-31T18:04:29.710Z,100468.50
2022-12-31T18:06:56.333Z,100475.56
2022-12-31T18:09:23.010Z,100481.50
2022-12-31T18:11:49.824Z,100469.63
2022-12-31T18:14:16.914Z,100469.56
2022-12-31T18:16:46.732Z,100475.78
2022-12-31T18:19:37.856Z,100482.03
2022-12-31T18:22:01.691Z,100477.69
2022-12-31T18:24:28.354Z,100487.72
2022-12-31T18:26:55.374Z,100486.91
2022-12-31T18:29:22.551Z,100485.28
2022-12-31T18:31:50.477Z,100489.59
2022-12-31T18:34:18.464Z,100491.50
2022-12-31T18:36:45.810Z,100498.78
2022-12-31T18:39:12.815Z,100493.94
2022-12-31T18:41:48.924Z,100494.47
2022-12-31T18:44:16.068Z,100492.59
2022-12-31T18:46:43.115Z,100499.63
2022-12-31T18:49:09.886Z,100502.38
2022-12-31T18:51:36.570Z,100499.09
2022-12-31T18:54:04.870Z,100510.19
2022-12-31T18:56:31.575Z,100506.16
2022-12-31T18:58:59.626Z,100510.50
2022-12-31T19:01:34.977Z,100512.38
2022-12-31T19:04:04.394Z,100510.44
2022-12-31T19:06:31.176Z,100508.56
2022-12-31T19:09:00.858Z,100505.88
2022-12-31T19:11:28.210Z,100508.03
2022-12-31T19:13:54.819Z,100516.69
2022-12-31T19:16:21.492Z,100507.22
2022-12-31T19:18:49.042Z,100503.97
2022-12-31T19:21:18.780Z,100507.75
2022-12-31T19:23:46.191Z,100506.69
2022-12-31T19:26:21.291Z,100511.03
2022-12-31T19:28:49.308Z,100508.59
2022-12-31T19:31:16.562Z,100506.97
2022-12-31T19:33:43.315Z,100516.19
2022-12-31T19:36:17.925Z,100508.03
2022-12-31T19:38:45.111Z,100511.59
2022-12-31T19:41:18.688Z,100506.13
2022-12-31T19:43:46.365Z,100501.00
2022-12-31T19:46:18.464Z,100511.81
2022-12-31T19:48:46.183Z,100511.81
2022-12-31T19:51:18.041Z,100504.22
2022-12-31T19:53:46.829Z,100512.34
2022-12-31T19:56:16.733Z,100516.66
2022-12-31T19:58:43.851Z,100517.19
2022-12-31T20:01:22.336Z,100511.81
2022-12-31T20:03:49.760Z,100515.84
2022-12-31T20:06:19.363Z,100514.47
2022-12-31T20:08:49.749Z,100511.25
2022-12-31T20:11:20.608Z,100510.94
2022-12-31T20:13:49.364Z,100513.66
2022-12-31T20:16:18.586Z,100514.75
2022-12-31T20:18:46.809Z,100515.56
2022-12-31T20:21:19.838Z,100516.06
2022-12-31T20:23:48.457Z,100512.03
2022-12-31T20:26:15.755Z,100517.19
2022-12-31T20:28:42.665Z,100512.03
2022-12-31T20:31:18.774Z,100516.94
2022-12-31T20:33:45.736Z,100517.72
2022-12-31T20:36:15.355Z,100521.78
2022-12-31T20:38:42.108Z,100516.63
2022-12-31T20:41:11.807Z,100523.94
2022-12-31T20:43:39.214Z,100526.66
2022-12-31T20:46:14.085Z,100518.75
2022-12-31T20:48:42.702Z,100511.19
2022-12-31T20:51:09.609Z,100510.66
2022-12-31T20:53:36.268Z,100523.41
2022-12-31T20:56:09.490Z,100520.47
2022-12-31T20:58:36.462Z,100519.56
2022-12-31T21:01:06.582Z,100525.56
2022-12-31T21:06:22.795Z,100530.72
2022-12-31T21:08:49.500Z,100523.97
2022-12-31T21:11:34.840Z,100528.00
2022-12-31T21:14:01.945Z,100526.69
2022-12-31T21:16:28.944Z,100520.44
2022-12-31T21:18:55.561Z,100520.16
2022-12-31T21:21:22.818Z,100526.69
2022-12-31T21:23:49.726Z,100525.88
2022-12-31T21:26:16.936Z,100528.00
2022-12-31T21:28:44.017Z,100529.13
2022-12-31T21:31:13.327Z,100524.78
2022-12-31T21:33:43.246Z,100525.03
2022-12-31T21:36:10.099Z,100529.41
2022-12-31T21:38:36.929Z,100532.88
2022-12-31T21:41:05.454Z,100529.69
2022-12-31T21:43:32.166Z,100531.81
2022-12-31T21:46:07.175Z,100534.22
2022-12-31T21:48:34.180Z,100529.91
2022-12-31T21:51:10.050Z,100545.31
2022-12-31T21:53:37.523Z,100552.66
2022-12-31T21:56:11.395Z,100550.47
2022-12-31T21:58:43.207Z,100563.72
2022-12-31T22:01:37.624Z,100558.84
2022-12-31T22:04:05.240Z,100560.75
2022-12-31T22:06:35.742Z,100558.59
2022-12-31T22:09:02.474Z,100560.44
2022-12-31T22:11:29.308Z,100563.72
2022-12-31T22:13:56.185Z,100556.09
2022-12-31T22:16:23.354Z,100559.56
2022-12-31T22:18:50.409Z,100562.56
2022-12-31T22:21:20.830Z,100562.22
2022-12-31T22:23:52.716Z,100564.97
2022-12-31T22:26:23.478Z,100576.59
2022-12-31T22:28:51.148Z,100569.78
2022-12-31T22:31:20.868Z,100570.00
2022-12-31T22:33:48.073Z,100591.13
2022-12-31T22:36:17.997Z,100584.66
2022-12-31T22:38:45.069Z,100587.84
2022-12-31T22:41:14.584Z,100584.91
2022-12-31T22:43:43.951Z,100602.94
2022-12-31T22:46:13.855Z,100596.41
2022-12-31T22:48:41.586Z,100607.00
2022-12-31T22:51:09.487Z,100609.47
2022-12-31T22:53:36.615Z,100610.34
2022-12-31T22:56:03.241Z,100610.66
2022-12-31T22:58:30.305Z,100608.25
2022-12-31T23:00:59.626Z,100613.25
2022-12-31T23:03:26.436Z,100612.72
2022-12-31T23:05:53.165Z,100615.47
2022-12-31T23:08:23.747Z,100618.16
2022-12-31T23:11:06.002Z,100620.81
2022-12-31T23:13:57.055Z,100608.97
2022-12-31T23:16:44.071Z,100615.72
2022-12-31T23:19:30.356Z,100610.25
2022-12-31T23:22:16.292Z,100606.13
2022-12-31T23:24:43.039Z,100604.13
2022-12-31T23:27:12.529Z,100606.81
2022-12-31T23:29:46.661Z,100612.22
2022-12-31T23:32:16.160Z,100593.88
2022-12-31T23:34:44.478Z,100595.41
2022-12-31T23:37:14.445Z,100596.03
2022-12-31T23:39:42.274Z,100598.44
2022-12-31T23:42:09.117Z,100601.47
2022-12-31T23:44:35.759Z,100612.84
2022-12-31T23:47:02.509Z,100607.69
2022-12-31T23:49:29.246Z,100609.06
2022-12-31T23:51:55.854Z,100610.41
2022-12-31T23:54:22.566Z,100603.03
2022-12-31T23:56:49.328Z,100604.34
2022-12-31T23:59:16.193Z,100607.38
